PWSweather.com
Personal Weather Stations
Station Observations
IFREISTO2
Freiston, FreistonGB PE22 0QJ

FreistonFreistonGB PE22 0QJ

Lat: 52.964, Lon: 0.041

Elevation: 16

Station Type: Fine Offset

http://www.midlifedad.me.uk/weather

Latest ConditionsUpdated 11:50:00 PM GMT Sunday, Nov 18, 2018
Currently Today's Max Today's Min Today's Average
Temperature 46.6°F8.1°C 50.4°F10.2°C 42.8°F6.0°C 45.8°F7.7°C
Dew Point 41.1°F5.1°C 46.8°F8.2°C 37.1°F2.8°C 41.8°F5.4°C
Winds 7.6 mph NE12.2 kmh NE 12.3 mph -19.8 kmh - - 9.0 mph 14.5 kmh
Wind Gusts 15.2 mph24.5 kmh 21.3 mph34.3 kmh - -
Humidity 81% 93% 75% 86%
Pressure 30.33 in1027.1 mb 30.42 in1030.1 mb 30.33 in1027.1 mb -
Hour Temp Dew Point Humidity Winds Wind Gusts Pressure Precip Precip Rate Daily Precip Total
11:50 PM 46.6°F8.1°C 41.1°F5.1°C 81% 7.6 mph NE12.2 kmh NE 15.2 mph24.5 kmh 30.33 in1027.1 mb 0.00 in0.0 mm 0.00 in0.0 mm 0.00 in0.0 mm
11:45 PM 46.6°F8.1°C 41.1°F5.1°C 81% 7.5 mph NE12.1 kmh NE 15.2 mph24.5 kmh 30.33 in1027.1 mb 0.00 in0.0 mm 0.00 in0.0 mm 0.00 in0.0 mm
11:40 PM 46.6°F8.1°C 41.4°F5.2°C 82% 9.3 mph NE15.0 kmh NE 19.0 mph30.6 kmh 30.33 in1027.1 mb 0.00 in0.0 mm 0.00 in0.0 mm 0.00 in0.0 mm
11:35 PM 46.6°F8.1°C 41.4°F5.2°C 82% 11.1 mph E17.9 kmh E 19.0 mph30.6 kmh 30.33 in1027.1 mb 0.00 in0.0 mm 0.00 in0.0 mm 0.00 in0.0 mm
11:30 PM 46.6°F8.1°C 42.3°F5.7°C 85% 11.6 mph E18.7 kmh E 19.0 mph30.6 kmh 30.33 in1027.1 mb 0.00 in0.0 mm 0.00 in0.0 mm 0.00 in0.0 mm
11:25 PM 46.6°F8.1°C 42.3°F5.7°C 85% 12.3 mph ENE19.8 kmh ENE 21.3 mph34.3 kmh 30.33 in1027.1 mb 0.00 in0.0 mm 0.00 in0.0 mm 0.00 in0.0 mm
11:20 PM 46.4°F8.0°C 42.1°F5.6°C 85% 11.7 mph ENE18.8 kmh ENE 21.3 mph34.3 kmh 30.33 in1027.1 mb 0.00 in0.0 mm 0.00 in0.0 mm 0.00 in0.0 mm
11:15 PM 46.0°F7.8°C 41.8°F5.4°C 85% 9.7 mph NE15.6 kmh NE 17.4 mph28.0 kmh 30.33 in1027.1 mb 0.00 in0.0 mm 0.00 in0.0 mm 0.00 in0.0 mm
11:10 PM 45.9°F7.7°C 41.6°F5.3°C 85% 8.5 mph NE13.7 kmh NE 13.6 mph21.9 kmh 30.33 in1027.1 mb 0.00 in0.0 mm 0.00 in0.0 mm 0.00 in0.0 mm
11:05 PM 45.5°F7.5°C 41.3°F5.2°C 85% 7.6 mph NE12.2 kmh NE 13.0 mph20.9 kmh 30.33 in1027.1 mb 0.00 in0.0 mm 0.00 in0.0 mm 0.00 in0.0 mm
11:00 PM 45.1°F7.3°C 40.9°F4.9°C 85% 6.7 mph NE10.8 kmh NE 12.1 mph19.5 kmh 30.33 in1027.1 mb 0.00 in0.0 mm 0.00 in0.0 mm 0.00 in0.0 mm
10:55 PM 44.8°F7.1°C 40.5°F4.7°C 85% 6.4 mph NE10.3 kmh NE 12.1 mph19.5 kmh 30.33 in1027.1 mb 0.00 in0.0 mm 0.00 in0.0 mm 0.00 in0.0 mm
10:50 PM 44.8°F7.1°C 40.5°F4.7°C 85% 6.6 mph NE10.6 kmh NE 12.1 mph19.5 kmh 30.34 in1027.4 mb 0.00 in0.0 mm 0.00 in0.0 mm 0.00 in0.0 mm
10:45 PM 44.8°F7.1°C 40.5°F4.7°C 85% 7.3 mph NE11.7 kmh NE 15.2 mph24.5 kmh 30.33 in1027.1 mb 0.00 in0.0 mm 0.00 in0.0 mm 0.00 in0.0 mm
10:40 PM 44.8°F7.1°C 40.5°F4.7°C 85% 7.7 mph NE12.4 kmh NE 15.2 mph24.5 kmh 30.34 in1027.4 mb 0.00 in0.0 mm 0.00 in0.0 mm 0.00 in0.0 mm
10:35 PM 44.8°F7.1°C 40.5°F4.7°C 85% 7.9 mph NE12.7 kmh NE 13.0 mph20.9 kmh 30.34 in1027.4 mb 0.00 in0.0 mm 0.00 in0.0 mm 0.00 in0.0 mm
10:30 PM 44.6°F7.0°C 40.4°F4.7°C 85% 8.1 mph NE13.0 kmh NE 13.6 mph21.9 kmh 30.34 in1027.4 mb 0.00 in0.0 mm 0.00 in0.0 mm 0.00 in0.0 mm
10:25 PM 44.4°F6.9°C 40.5°F4.7°C 86% 7.4 mph NE11.9 kmh NE 13.6 mph21.9 kmh 30.34 in1027.4 mb 0.00 in0.0 mm 0.00 in0.0 mm 0.00 in0.0 mm
10:20 PM 44.2°F6.8°C 40.3°F4.6°C 86% 6.7 mph NE10.8 kmh NE 11.4 mph18.3 kmh 30.35 in1027.8 mb 0.00 in0.0 mm 0.00 in0.0 mm 0.00 in0.0 mm
10:15 PM 43.9°F6.6°C 40.0°F4.4°C 86% 6.7 mph NE10.8 kmh NE 11.4 mph18.3 kmh 30.35 in1027.8 mb 0.00 in0.0 mm 0.00 in0.0 mm 0.00 in0.0 mm
10:10 PM 43.5°F6.4°C 39.6°F4.2°C 86% 6.4 mph ENE10.3 kmh ENE 11.4 mph18.3 kmh 30.35 in1027.8 mb 0.00 in0.0 mm 0.00 in0.0 mm 0.00 in0.0 mm
10:05 PM 43.3°F6.3°C 39.1°F3.9°C 85% 5.9 mph NE9.5 kmh NE 9.2 mph14.8 kmh 30.35 in1027.8 mb 0.00 in0.0 mm 0.00 in0.0 mm 0.00 in0.0 mm
10:00 PM 43.2°F6.2°C 39.0°F3.9°C 85% 5.6 mph NE9.0 kmh NE 8.3 mph13.4 kmh 30.35 in1027.8 mb 0.00 in0.0 mm 0.00 in0.0 mm 0.00 in0.0 mm
09:55 PM 43.0°F6.1°C 38.8°F3.8°C 85% 5.3 mph NE8.5 kmh NE 9.2 mph14.8 kmh 30.35 in1027.8 mb 0.00 in0.0 mm 0.00 in0.0 mm 0.00 in0.0 mm
09:50 PM 43.0°F6.1°C 38.8°F3.8°C 85% 5.1 mph ENE8.2 kmh ENE 9.2 mph14.8 kmh 30.35 in1027.8 mb 0.00 in0.0 mm 0.00 in0.0 mm 0.00 in0.0 mm
09:45 PM 42.8°F6.0°C 38.6°F3.7°C 85% 4.6 mph NE7.4 kmh NE 8.3 mph13.4 kmh 30.35 in1027.8 mb 0.00 in0.0 mm 0.00 in0.0 mm 0.00 in0.0 mm
09:40 PM 42.8°F6.0°C 38.3°F3.5°C 84% 4.4 mph NE7.1 kmh NE 7.6 mph12.2 kmh 30.35 in1027.8 mb 0.00 in0.0 mm 0.00 in0.0 mm 0.00 in0.0 mm
09:35 PM 42.8°F6.0°C 38.3°F3.5°C 84% 4.4 mph NE7.1 kmh NE 7.6 mph12.2 kmh 30.35 in1027.8 mb 0.00 in0.0 mm 0.00 in0.0 mm 0.00 in0.0 mm
09:30 PM 42.8°F6.0°C 38.3°F3.5°C 84% 4.2 mph NE6.8 kmh NE 6.9 mph11.1 kmh 30.35 in1027.8 mb 0.00 in0.0 mm 0.00 in0.0 mm 0.00 in0.0 mm
09:25 PM 42.8°F6.0°C 38.3°F3.5°C 84% 3.8 mph NE6.1 kmh NE 6.9 mph11.1 kmh 30.35 in1027.8 mb 0.00 in0.0 mm 0.00 in0.0 mm 0.00 in0.0 mm
09:20 PM 43.0°F6.1°C 38.5°F3.6°C 84% 3.7 mph NE6.0 kmh NE 6.9 mph11.1 kmh 30.35 in1027.8 mb 0.00 in0.0 mm 0.00 in0.0 mm 0.00 in0.0 mm
09:15 PM 43.2°F6.2°C 38.3°F3.5°C 83% 4.1 mph NE6.6 kmh NE 8.3 mph13.4 kmh 30.35 in1027.8 mb 0.00 in0.0 mm 0.00 in0.0 mm 0.00 in0.0 mm
09:10 PM 43.2°F6.2°C 38.3°F3.5°C 83% 4.6 mph NE7.4 kmh NE 8.3 mph13.4 kmh 30.35 in1027.8 mb 0.00 in0.0 mm 0.00 in0.0 mm 0.00 in0.0 mm
09:05 PM 43.3°F6.3°C 38.5°F3.6°C 83% 4.5 mph NE7.2 kmh NE 8.3 mph13.4 kmh 30.35 in1027.8 mb 0.00 in0.0 mm 0.00 in0.0 mm 0.00 in0.0 mm
09:00 PM 43.3°F6.3°C 38.5°F3.6°C 83% 4.9 mph NE7.9 kmh NE 9.8 mph15.8 kmh 30.35 in1027.8 mb 0.00 in0.0 mm 0.00 in0.0 mm 0.00 in0.0 mm
08:50 PM 43.3°F6.3°C 38.2°F3.4°C 82% 6.0 mph NE9.7 kmh NE 9.8 mph15.8 kmh 30.36 in1028.1 mb 0.00 in0.0 mm 0.00 in0.0 mm 0.00 in0.0 mm
08:45 PM 43.3°F6.3°C 38.2°F3.4°C 82% 6.6 mph NE10.6 kmh NE 13.0 mph20.9 kmh 30.36 in1028.1 mb 0.00 in0.0 mm 0.00 in0.0 mm 0.00 in0.0 mm
08:40 PM 43.3°F6.3°C 38.2°F3.4°C 82% 6.8 mph ENE10.9 kmh ENE 13.0 mph20.9 kmh 30.36 in1028.1 mb 0.00 in0.0 mm 0.00 in0.0 mm 0.00 in0.0 mm
08:35 PM 43.3°F6.3°C 38.2°F3.4°C 82% 6.8 mph ENE10.9 kmh ENE 12.1 mph19.5 kmh 30.36 in1028.1 mb 0.00 in0.0 mm 0.00 in0.0 mm 0.00 in0.0 mm
08:30 PM 43.3°F6.3°C 38.2°F3.4°C 82% 7.0 mph ENE11.3 kmh ENE 12.1 mph19.5 kmh 30.36 in1028.1 mb 0.00 in0.0 mm 0.00 in0.0 mm 0.00 in0.0 mm
08:25 PM 43.3°F6.3°C 38.2°F3.4°C 82% 6.4 mph NE10.3 kmh NE 10.7 mph17.2 kmh 30.36 in1028.1 mb 0.00 in0.0 mm 0.00 in0.0 mm 0.00 in0.0 mm
08:20 PM 43.3°F6.3°C 38.2°F3.4°C 82% 6.5 mph ENE10.5 kmh ENE 11.4 mph18.3 kmh 30.36 in1028.1 mb 0.00 in0.0 mm 0.00 in0.0 mm 0.00 in0.0 mm
08:15 PM 43.3°F6.3°C 37.9°F3.3°C 81% 7.5 mph NE12.1 kmh NE 12.1 mph19.5 kmh 30.35 in1027.8 mb 0.00 in0.0 mm 0.00 in0.0 mm 0.00 in0.0 mm
08:10 PM 43.2°F6.2°C 37.7°F3.2°C 81% 7.1 mph NE11.4 kmh NE 12.1 mph19.5 kmh 30.36 in1028.1 mb 0.00 in0.0 mm 0.00 in0.0 mm 0.00 in0.0 mm
08:05 PM 43.0°F6.1°C 37.5°F3.1°C 81% 6.5 mph NE10.5 kmh NE 12.1 mph19.5 kmh 30.36 in1028.1 mb 0.00 in0.0 mm 0.00 in0.0 mm 0.00 in0.0 mm
07:55 PM 43.2°F6.2°C 37.1°F2.8°C 79% 5.2 mph NE8.4 kmh NE 10.7 mph17.2 kmh 30.36 in1028.1 mb 0.00 in0.0 mm 0.00 in0.0 mm 0.00 in0.0 mm
07:50 PM 43.3°F6.3°C 37.3°F2.9°C 79% 5.5 mph NE8.9 kmh NE 10.7 mph17.2 kmh 30.37 in1028.4 mb 0.00 in0.0 mm 0.00 in0.0 mm 0.00 in0.0 mm
07:45 PM 43.5°F6.4°C 37.1°F2.8°C 78% 5.8 mph NE9.3 kmh NE 10.7 mph17.2 kmh 30.37 in1028.4 mb 0.00 in0.0 mm 0.00 in0.0 mm 0.00 in0.0 mm
07:40 PM 43.7°F6.5°C 37.3°F2.9°C 78% 6.3 mph NE10.1 kmh NE 11.4 mph18.3 kmh 30.36 in1028.1 mb 0.00 in0.0 mm 0.00 in0.0 mm 0.00 in0.0 mm
07:35 PM 43.9°F6.6°C 37.5°F3.1°C 78% 6.2 mph ENE10.0 kmh ENE 13.0 mph20.9 kmh 30.37 in1028.4 mb 0.00 in0.0 mm 0.00 in0.0 mm 0.00 in0.0 mm
07:30 PM 44.1°F6.7°C 37.3°F2.9°C 77% 7.1 mph ENE11.4 kmh ENE 13.0 mph20.9 kmh 30.36 in1028.1 mb 0.00 in0.0 mm 0.00 in0.0 mm 0.00 in0.0 mm
07:25 PM 44.2°F6.8°C 37.5°F3.1°C 77% 7.5 mph NE12.1 kmh NE 13.0 mph20.9 kmh 30.36 in1028.1 mb 0.00 in0.0 mm 0.00 in0.0 mm 0.00 in0.0 mm
07:20 PM 44.2°F6.8°C 37.5°F3.1°C 77% 7.7 mph NE12.4 kmh NE 13.6 mph21.9 kmh 30.36 in1028.1 mb 0.00 in0.0 mm 0.00 in0.0 mm 0.00 in0.0 mm
07:15 PM 44.6°F7.0°C 37.5°F3.1°C 76% 8.7 mph ENE14.0 kmh ENE 13.6 mph21.9 kmh 30.37 in1028.4 mb 0.00 in0.0 mm 0.00 in0.0 mm 0.00 in0.0 mm
07:10 PM 44.6°F7.0°C 37.5°F3.1°C 76% 9.1 mph ENE14.6 kmh ENE 14.5 mph23.3 kmh 30.36 in1028.1 mb 0.00 in0.0 mm 0.00 in0.0 mm 0.00 in0.0 mm
07:05 PM 44.6°F7.0°C 37.8°F3.2°C 77% 9.2 mph ENE14.8 kmh ENE 14.5 mph23.3 kmh 30.36 in1028.1 mb 0.00 in0.0 mm 0.00 in0.0 mm 0.00 in0.0 mm
07:00 PM 44.6°F7.0°C 37.8°F3.2°C 77% 8.8 mph ENE14.2 kmh ENE 14.5 mph23.3 kmh 30.37 in1028.4 mb 0.00 in0.0 mm 0.00 in0.0 mm 0.00 in0.0 mm
06:55 PM 44.6°F7.0°C 37.8°F3.2°C 77% 7.9 mph ENE12.7 kmh ENE 13.6 mph21.9 kmh 30.37 in1028.4 mb 0.00 in0.0 mm 0.00 in0.0 mm 0.00 in0.0 mm
06:50 PM 44.8°F7.1°C 38.0°F3.3°C 77% 8.4 mph ENE13.5 kmh ENE 14.5 mph23.3 kmh 30.37 in1028.4 mb 0.00 in0.0 mm 0.00 in0.0 mm 0.00 in0.0 mm
06:45 PM 44.8°F7.1°C 38.0°F3.3°C 77% 9.2 mph ENE14.8 kmh ENE 15.2 mph24.5 kmh 30.37 in1028.4 mb 0.00 in0.0 mm 0.00 in0.0 mm 0.00 in0.0 mm
06:40 PM 44.8°F7.1°C 38.0°F3.3°C 77% 9.6 mph NE15.4 kmh NE 15.9 mph25.6 kmh 30.37 in1028.4 mb 0.00 in0.0 mm 0.00 in0.0 mm 0.00 in0.0 mm
06:35 PM 44.8°F7.1°C 38.0°F3.3°C 77% 9.5 mph NE15.3 kmh NE 15.9 mph25.6 kmh 30.37 in1028.4 mb 0.00 in0.0 mm 0.00 in0.0 mm 0.00 in0.0 mm
06:30 PM 44.6°F7.0°C 37.8°F3.2°C 77% 9.2 mph NE14.8 kmh NE 14.5 mph23.3 kmh 30.37 in1028.4 mb 0.00 in0.0 mm 0.00 in0.0 mm 0.00 in0.0 mm
06:25 PM 44.6°F7.0°C 37.5°F3.1°C 76% 9.1 mph NE14.6 kmh NE 14.5 mph23.3 kmh 30.37 in1028.4 mb 0.00 in0.0 mm 0.00 in0.0 mm 0.00 in0.0 mm
06:20 PM 44.6°F7.0°C 37.5°F3.1°C 76% 8.7 mph NE14.0 kmh NE 13.0 mph20.9 kmh 30.37 in1028.4 mb 0.00 in0.0 mm 0.00 in0.0 mm 0.00 in0.0 mm
06:15 PM 44.8°F7.1°C 37.3°F2.9°C 75% 9.1 mph NE14.6 kmh NE 15.9 mph25.6 kmh 30.37 in1028.4 mb 0.00 in0.0 mm 0.00 in0.0 mm 0.00 in0.0 mm
06:10 PM 44.8°F7.1°C 37.3°F2.9°C 75% 10.2 mph ENE16.4 kmh ENE 17.4 mph28.0 kmh 30.37 in1028.4 mb 0.00 in0.0 mm 0.00 in0.0 mm 0.00 in0.0 mm
06:05 PM 44.8°F7.1°C 37.3°F2.9°C 75% 9.9 mph ENE15.9 kmh ENE 17.4 mph28.0 kmh 30.37 in1028.4 mb 0.00 in0.0 mm 0.00 in0.0 mm 0.00 in0.0 mm
06:00 PM 44.8°F7.1°C 37.3°F2.9°C 75% 9.3 mph NE15.0 kmh NE 17.4 mph28.0 kmh 30.37 in1028.4 mb 0.00 in0.0 mm 0.00 in0.0 mm 0.00 in0.0 mm
05:55 PM 45.0°F7.2°C 37.5°F3.1°C 75% 10.7 mph ENE17.2 kmh ENE 19.7 mph31.7 kmh 30.37 in1028.4 mb 0.00 in0.0 mm 0.00 in0.0 mm 0.00 in0.0 mm
05:50 PM 44.8°F7.1°C 37.3°F2.9°C 75% 10.4 mph ENE16.7 kmh ENE 19.7 mph31.7 kmh 30.37 in1028.4 mb 0.00 in0.0 mm 0.00 in0.0 mm 0.00 in0.0 mm
05:45 PM 44.8°F7.1°C 37.3°F2.9°C 75% 9.9 mph ENE15.9 kmh ENE 15.9 mph25.6 kmh 30.38 in1028.8 mb 0.00 in0.0 mm 0.00 in0.0 mm 0.00 in0.0 mm
05:40 PM 44.8°F7.1°C 37.7°F3.2°C 76% 10.2 mph ENE16.4 kmh ENE 19.0 mph30.6 kmh 30.38 in1028.8 mb 0.00 in0.0 mm 0.00 in0.0 mm 0.00 in0.0 mm
05:35 PM 44.8°F7.1°C 37.7°F3.2°C 76% 9.9 mph ENE15.9 kmh ENE 19.0 mph30.6 kmh 30.37 in1028.4 mb 0.00 in0.0 mm 0.00 in0.0 mm 0.00 in0.0 mm
05:30 PM 44.8°F7.1°C 37.7°F3.2°C 76% 9.1 mph ENE14.6 kmh ENE 13.0 mph20.9 kmh 30.37 in1028.4 mb 0.00 in0.0 mm 0.00 in0.0 mm 0.00 in0.0 mm
05:25 PM 45.0°F7.2°C 37.8°F3.2°C 76% 9.3 mph NE15.0 kmh NE 15.2 mph24.5 kmh 30.37 in1028.4 mb 0.00 in0.0 mm 0.00 in0.0 mm 0.00 in0.0 mm
05:20 PM 45.0°F7.2°C 37.8°F3.2°C 76% 10.1 mph NE16.3 kmh NE 15.9 mph25.6 kmh 30.37 in1028.4 mb 0.00 in0.0 mm 0.00 in0.0 mm 0.00 in0.0 mm
05:15 PM 45.0°F7.2°C 37.8°F3.2°C 76% 9.7 mph NE15.6 kmh NE 16.8 mph27.0 kmh 30.37 in1028.4 mb 0.00 in0.0 mm 0.00 in0.0 mm 0.00 in0.0 mm
05:10 PM 45.0°F7.2°C 38.2°F3.4°C 77% 9.6 mph NE15.4 kmh NE 16.8 mph27.0 kmh 30.37 in1028.4 mb 0.00 in0.0 mm 0.00 in0.0 mm 0.00 in0.0 mm
05:05 PM 45.0°F7.2°C 38.2°F3.4°C 77% 9.6 mph ENE15.4 kmh ENE 15.2 mph24.5 kmh 30.37 in1028.4 mb 0.00 in0.0 mm 0.00 in0.0 mm 0.00 in0.0 mm
05:00 PM 45.0°F7.2°C 38.2°F3.4°C 77% 8.9 mph NE14.3 kmh NE 15.2 mph24.5 kmh 30.37 in1028.4 mb 0.00 in0.0 mm 0.00 in0.0 mm 0.00 in0.0 mm
04:55 PM 45.1°F7.3°C 38.4°F3.6°C 77% 8.8 mph ENE14.2 kmh ENE 13.0 mph20.9 kmh 30.37 in1028.4 mb 0.00 in0.0 mm 0.00 in0.0 mm 0.00 in0.0 mm
04:50 PM 45.3°F7.4°C 38.5°F3.6°C 77% 9.4 mph ENE15.1 kmh ENE 14.5 mph23.3 kmh 30.38 in1028.8 mb 0.00 in0.0 mm 0.00 in0.0 mm 0.00 in0.0 mm
04:45 PM 45.3°F7.4°C 38.9°F3.8°C 78% 9.9 mph ENE15.9 kmh ENE 15.9 mph25.6 kmh 30.38 in1028.8 mb 0.00 in0.0 mm 0.00 in0.0 mm 0.00 in0.0 mm
04:40 PM 45.3°F7.4°C 38.9°F3.8°C 78% 10.1 mph ENE16.3 kmh ENE 16.8 mph27.0 kmh 30.38 in1028.8 mb 0.00 in0.0 mm 0.00 in0.0 mm 0.00 in0.0 mm
04:35 PM 45.3°F7.4°C 38.9°F3.8°C 78% 9.3 mph ENE15.0 kmh ENE 16.8 mph27.0 kmh 30.37 in1028.4 mb 0.00 in0.0 mm 0.00 in0.0 mm 0.00 in0.0 mm
04:30 PM 45.3°F7.4°C 38.9°F3.8°C 78% 9.2 mph ENE14.8 kmh ENE 13.6 mph21.9 kmh 30.37 in1028.4 mb 0.00 in0.0 mm 0.00 in0.0 mm 0.00 in0.0 mm
04:25 PM 45.5°F7.5°C 39.0°F3.9°C 78% 9.4 mph ENE15.1 kmh ENE 15.2 mph24.5 kmh 30.37 in1028.4 mb 0.00 in0.0 mm 0.00 in0.0 mm 0.00 in0.0 mm
04:20 PM 45.5°F7.5°C 39.0°F3.9°C 78% 9.3 mph ENE15.0 kmh ENE 15.9 mph25.6 kmh 30.37 in1028.4 mb 0.00 in0.0 mm 0.00 in0.0 mm 0.00 in0.0 mm
04:15 PM 45.7°F7.6°C 39.2°F4.0°C 78% 9.5 mph ENE15.3 kmh ENE 15.9 mph25.6 kmh 30.37 in1028.4 mb 0.00 in0.0 mm 0.00 in0.0 mm 0.00 in0.0 mm
04:10 PM 45.9°F7.7°C 39.4°F4.1°C 78% 9.6 mph ENE15.4 kmh ENE 15.9 mph25.6 kmh 30.37 in1028.4 mb 0.00 in0.0 mm 0.00 in0.0 mm 0.00 in0.0 mm
04:05 PM 45.9°F7.7°C 39.4°F4.1°C 78% 9.9 mph ENE15.9 kmh ENE 15.9 mph25.6 kmh 30.37 in1028.4 mb 0.00 in0.0 mm 0.00 in0.0 mm 0.00 in0.0 mm
04:00 PM 46.0°F7.8°C 39.9°F4.4°C 79% 9.5 mph ENE15.3 kmh ENE 15.9 mph25.6 kmh 30.37 in1028.4 mb 0.00 in0.0 mm 0.00 in0.0 mm 0.00 in0.0 mm
03:55 PM 46.0°F7.8°C 39.9°F4.4°C 79% 9.0 mph ENE14.5 kmh ENE 14.5 mph23.3 kmh 30.38 in1028.8 mb 0.00 in0.0 mm 0.00 in0.0 mm 0.00 in0.0 mm
03:50 PM 46.2°F7.9°C 40.1°F4.5°C 79% 9.2 mph ENE14.8 kmh ENE 16.8 mph27.0 kmh 30.38 in1028.8 mb 0.00 in0.0 mm 0.00 in0.0 mm 0.00 in0.0 mm
03:45 PM 46.2°F7.9°C 40.1°F4.5°C 79% 8.0 mph NE12.9 kmh NE 16.8 mph27.0 kmh 30.38 in1028.8 mb 0.00 in0.0 mm 0.00 in0.0 mm 0.00 in0.0 mm
03:40 PM 46.4°F8.0°C 39.9°F4.4°C 78% 7.4 mph NE11.9 kmh NE 12.1 mph19.5 kmh 30.38 in1028.8 mb 0.00 in0.0 mm 0.00 in0.0 mm 0.00 in0.0 mm
03:35 PM 46.6°F8.1°C 40.1°F4.5°C 78% 9.0 mph ENE14.5 kmh ENE 15.2 mph24.5 kmh 30.38 in1028.8 mb 0.00 in0.0 mm 0.00 in0.0 mm 0.00 in0.0 mm
03:30 PM 46.8°F8.2°C 40.3°F4.6°C 78% 10.0 mph ENE16.1 kmh ENE 15.2 mph24.5 kmh 30.38 in1028.8 mb 0.00 in0.0 mm 0.00 in0.0 mm 0.00 in0.0 mm
03:25 PM 46.8°F8.2°C 40.3°F4.6°C 78% 9.4 mph NE15.1 kmh NE 13.6 mph21.9 kmh 30.38 in1028.8 mb 0.00 in0.0 mm 0.00 in0.0 mm 0.00 in0.0 mm
03:20 PM 46.9°F8.3°C 40.8°F4.9°C 79% 8.4 mph NE13.5 kmh NE 12.1 mph19.5 kmh 30.38 in1028.8 mb 0.00 in0.0 mm 0.00 in0.0 mm 0.00 in0.0 mm
03:15 PM 47.1°F8.4°C 40.9°F4.9°C 79% 8.2 mph ENE13.2 kmh ENE 13.6 mph21.9 kmh 30.38 in1028.8 mb 0.00 in0.0 mm 0.00 in0.0 mm 0.00 in0.0 mm
03:10 PM 47.3°F8.5°C 41.1°F5.1°C 79% 8.6 mph ENE13.8 kmh ENE 13.6 mph21.9 kmh 30.38 in1028.8 mb 0.00 in0.0 mm 0.00 in0.0 mm 0.00 in0.0 mm
03:05 PM 47.5°F8.6°C 41.3°F5.2°C 79% 8.9 mph ENE14.3 kmh ENE 15.2 mph24.5 kmh 30.38 in1028.8 mb 0.00 in0.0 mm 0.00 in0.0 mm 0.00 in0.0 mm
03:00 PM 47.7°F8.7°C 41.5°F5.3°C 79% 9.6 mph ENE15.4 kmh ENE 17.4 mph28.0 kmh 30.38 in1028.8 mb 0.00 in0.0 mm 0.00 in0.0 mm 0.00 in0.0 mm
02:55 PM 47.8°F8.8°C 41.6°F5.3°C 79% 9.8 mph NE15.8 kmh NE 17.4 mph28.0 kmh 30.38 in1028.8 mb 0.00 in0.0 mm 0.00 in0.0 mm 0.00 in0.0 mm
02:50 PM 48.0°F8.9°C 42.1°F5.6°C 80% 9.9 mph NE15.9 kmh NE 15.2 mph24.5 kmh 30.38 in1028.8 mb 0.00 in0.0 mm 0.00 in0.0 mm 0.00 in0.0 mm
02:45 PM 48.0°F8.9°C 42.1°F5.6°C 80% 10.2 mph NE16.4 kmh NE 16.8 mph27.0 kmh 30.38 in1028.8 mb 0.00 in0.0 mm 0.00 in0.0 mm 0.00 in0.0 mm
02:40 PM 48.2°F9.0°C 42.0°F5.6°C 79% 10.9 mph NE17.5 kmh NE 19.0 mph30.6 kmh 30.38 in1028.8 mb 0.00 in0.0 mm 0.00 in0.0 mm 0.00 in0.0 mm
02:35 PM 48.4°F9.1°C 42.5°F5.8°C 80% 11.6 mph ENE18.7 kmh ENE 19.0 mph30.6 kmh 30.38 in1028.8 mb 0.00 in0.0 mm 0.00 in0.0 mm 0.00 in0.0 mm
02:30 PM 48.4°F9.1°C 42.5°F5.8°C 80% 11.3 mph ENE18.2 kmh ENE 19.0 mph30.6 kmh 30.38 in1028.8 mb 0.00 in0.0 mm 0.00 in0.0 mm 0.00 in0.0 mm
02:25 PM 48.6°F9.2°C 43.0°F6.1°C 81% 10.4 mph ENE16.7 kmh ENE 19.7 mph31.7 kmh 30.39 in1029.1 mb 0.00 in0.0 mm 0.00 in0.0 mm 0.00 in0.0 mm
02:20 PM 48.7°F9.3°C 43.5°F6.4°C 82% 9.8 mph NE15.8 kmh NE 19.7 mph31.7 kmh 30.38 in1028.8 mb 0.00 in0.0 mm 0.00 in0.0 mm 0.00 in0.0 mm
02:15 PM 48.7°F9.3°C 43.5°F6.4°C 82% 9.0 mph NE14.5 kmh NE 16.8 mph27.0 kmh 30.39 in1029.1 mb 0.00 in0.0 mm 0.00 in0.0 mm 0.00 in0.0 mm
02:10 PM 48.9°F9.4°C 43.7°F6.5°C 82% 8.7 mph NE14.0 kmh NE 15.9 mph25.6 kmh 30.39 in1029.1 mb 0.00 in0.0 mm 0.00 in0.0 mm 0.00 in0.0 mm
02:05 PM 48.9°F9.4°C 44.0°F6.7°C 83% 9.4 mph NE15.1 kmh NE 16.8 mph27.0 kmh 30.39 in1029.1 mb 0.00 in0.0 mm 0.00 in0.0 mm 0.00 in0.0 mm
02:00 PM 48.9°F9.4°C 44.0°F6.7°C 83% 10.4 mph NE16.7 kmh NE 18.3 mph29.5 kmh 30.39 in1029.1 mb 0.00 in0.0 mm 0.00 in0.0 mm 0.00 in0.0 mm
01:55 PM 49.1°F9.5°C 44.2°F6.8°C 83% 11.1 mph NE17.9 kmh NE 18.3 mph29.5 kmh 30.39 in1029.1 mb 0.00 in0.0 mm 0.00 in0.0 mm 0.00 in0.0 mm
01:50 PM 49.1°F9.5°C 44.2°F6.8°C 83% 10.8 mph NE17.4 kmh NE 18.3 mph29.5 kmh 30.39 in1029.1 mb 0.00 in0.0 mm 0.00 in0.0 mm 0.00 in0.0 mm
01:45 PM 49.1°F9.5°C 44.5°F6.9°C 84% 11.0 mph NE17.7 kmh NE 19.7 mph31.7 kmh 30.39 in1029.1 mb 0.00 in0.0 mm 0.00 in0.0 mm 0.00 in0.0 mm
01:40 PM 49.3°F9.6°C 44.6°F7.0°C 84% 11.3 mph NE18.2 kmh NE 19.7 mph31.7 kmh 30.39 in1029.1 mb 0.00 in0.0 mm 0.00 in0.0 mm 0.00 in0.0 mm
01:35 PM 49.3°F9.6°C 44.6°F7.0°C 84% 10.9 mph NE17.5 kmh NE 19.0 mph30.6 kmh 30.39 in1029.1 mb 0.00 in0.0 mm 0.00 in0.0 mm 0.00 in0.0 mm
01:30 PM 49.3°F9.6°C 44.6°F7.0°C 84% 11.1 mph ENE17.9 kmh ENE 17.4 mph28.0 kmh 30.39 in1029.1 mb 0.00 in0.0 mm 0.00 in0.0 mm 0.00 in0.0 mm
01:25 PM 49.3°F9.6°C 44.6°F7.0°C 84% 11.1 mph NE17.9 kmh NE 17.4 mph28.0 kmh 30.39 in1029.1 mb 0.00 in0.0 mm 0.00 in0.0 mm 0.00 in0.0 mm
01:20 PM 49.3°F9.6°C 44.6°F7.0°C 84% 10.9 mph NE17.5 kmh NE 20.6 mph33.2 kmh 30.39 in1029.1 mb 0.00 in0.0 mm 0.00 in0.0 mm 0.00 in0.0 mm
01:15 PM 49.3°F9.6°C 44.6°F7.0°C 84% 10.8 mph ENE17.4 kmh ENE 20.6 mph33.2 kmh 30.39 in1029.1 mb 0.00 in0.0 mm 0.00 in0.0 mm 0.00 in0.0 mm
01:10 PM 49.3°F9.6°C 44.6°F7.0°C 84% 10.0 mph NE16.1 kmh NE 16.8 mph27.0 kmh 30.39 in1029.1 mb 0.00 in0.0 mm 0.00 in0.0 mm 0.00 in0.0 mm
01:05 PM 49.3°F9.6°C 44.6°F7.0°C 84% 10.1 mph NE16.3 kmh NE 17.4 mph28.0 kmh 30.38 in1028.8 mb 0.00 in0.0 mm 0.00 in0.0 mm 0.00 in0.0 mm
01:00 PM 49.5°F9.7°C 44.8°F7.1°C 84% 10.7 mph NE17.2 kmh NE 20.6 mph33.2 kmh 30.38 in1028.8 mb 0.00 in0.0 mm 0.00 in0.0 mm 0.00 in0.0 mm
12:55 PM 49.5°F9.7°C 44.8°F7.1°C 84% 11.7 mph NE18.8 kmh NE 20.6 mph33.2 kmh 30.39 in1029.1 mb 0.00 in0.0 mm 0.00 in0.0 mm 0.00 in0.0 mm
12:50 PM 49.6°F9.8°C 45.3°F7.4°C 85% 11.0 mph NE17.7 kmh NE 20.6 mph33.2 kmh 30.38 in1028.8 mb 0.00 in0.0 mm 0.00 in0.0 mm 0.00 in0.0 mm
12:45 PM 49.6°F9.8°C 45.3°F7.4°C 85% 11.2 mph ENE18.0 kmh ENE 17.4 mph28.0 kmh 30.38 in1028.8 mb 0.00 in0.0 mm 0.00 in0.0 mm 0.00 in0.0 mm
12:40 PM 49.6°F9.8°C 45.3°F7.4°C 85% 11.5 mph ENE18.5 kmh ENE 17.4 mph28.0 kmh 30.38 in1028.8 mb 0.00 in0.0 mm 0.00 in0.0 mm 0.00 in0.0 mm
12:35 PM 50.0°F10.0°C 45.4°F7.4°C 84% 9.9 mph NE15.9 kmh NE 15.9 mph25.6 kmh 30.38 in1028.8 mb 0.00 in0.0 mm 0.00 in0.0 mm 0.00 in0.0 mm
12:30 PM 50.0°F10.0°C 45.4°F7.4°C 84% 9.7 mph NE15.6 kmh NE 16.8 mph27.0 kmh 30.39 in1029.1 mb 0.00 in0.0 mm 0.00 in0.0 mm 0.00 in0.0 mm
12:25 PM 50.0°F10.0°C 45.4°F7.4°C 84% 11.0 mph NE17.7 kmh NE 18.3 mph29.5 kmh 30.39 in1029.1 mb 0.00 in0.0 mm 0.00 in0.0 mm 0.00 in0.0 mm
12:20 PM 50.0°F10.0°C 45.7°F7.6°C 85% 11.5 mph NE18.5 kmh NE 18.3 mph29.5 kmh 30.39 in1029.1 mb 0.00 in0.0 mm 0.00 in0.0 mm 0.00 in0.0 mm
12:15 PM 50.0°F10.0°C 45.7°F7.6°C 85% 10.7 mph ENE17.2 kmh ENE 17.4 mph28.0 kmh 30.39 in1029.1 mb 0.00 in0.0 mm 0.00 in0.0 mm 0.00 in0.0 mm
12:10 PM 50.0°F10.0°C 45.7°F7.6°C 85% 11.0 mph ENE17.7 kmh ENE 17.4 mph28.0 kmh 30.39 in1029.1 mb 0.00 in0.0 mm 0.00 in0.0 mm 0.00 in0.0 mm
12:05 PM 50.0°F10.0°C 45.7°F7.6°C 85% 11.3 mph ENE18.2 kmh ENE 16.8 mph27.0 kmh 30.40 in1029.5 mb 0.00 in0.0 mm 0.00 in0.0 mm 0.00 in0.0 mm
12:00 PM 50.0°F10.0°C 45.7°F7.6°C 85% 11.0 mph NE17.7 kmh NE 17.4 mph28.0 kmh 30.40 in1029.5 mb 0.00 in0.0 mm 0.00 in0.0 mm 0.00 in0.0 mm
11:55 AM 50.0°F10.0°C 45.7°F7.6°C 85% 11.4 mph NE18.3 kmh NE 18.3 mph29.5 kmh 30.40 in1029.5 mb 0.00 in0.0 mm 0.00 in0.0 mm 0.00 in0.0 mm
11:50 AM 50.2°F10.1°C 46.2°F7.9°C 86% 12.0 mph ENE19.3 kmh ENE 18.3 mph29.5 kmh 30.40 in1029.5 mb 0.00 in0.0 mm 0.00 in0.0 mm 0.00 in0.0 mm
11:45 AM 50.2°F10.1°C 46.2°F7.9°C 86% 11.9 mph ENE19.2 kmh ENE 19.7 mph31.7 kmh 30.40 in1029.5 mb 0.00 in0.0 mm 0.00 in0.0 mm 0.00 in0.0 mm
11:40 AM 50.4°F10.2°C 46.3°F7.9°C 86% 11.2 mph ENE18.0 kmh ENE 19.7 mph31.7 kmh 30.41 in1029.8 mb 0.00 in0.0 mm 0.00 in0.0 mm 0.00 in0.0 mm
11:35 AM 50.4°F10.2°C 46.6°F8.1°C 87% 11.0 mph NE17.7 kmh NE 19.0 mph30.6 kmh 30.40 in1029.5 mb 0.00 in0.0 mm 0.00 in0.0 mm 0.00 in0.0 mm
11:30 AM 50.2°F10.1°C 46.5°F8.1°C 87% 11.6 mph ENE18.7 kmh ENE 20.6 mph33.2 kmh 30.40 in1029.5 mb 0.00 in0.0 mm 0.00 in0.0 mm 0.00 in0.0 mm
11:25 AM 50.2°F10.1°C 46.5°F8.1°C 87% 11.6 mph ENE18.7 kmh ENE 20.6 mph33.2 kmh 30.41 in1029.8 mb 0.00 in0.0 mm 0.00 in0.0 mm 0.00 in0.0 mm
11:20 AM 50.2°F10.1°C 46.8°F8.2°C 88% 10.7 mph ENE17.2 kmh ENE 19.0 mph30.6 kmh 30.41 in1029.8 mb 0.00 in0.0 mm 0.00 in0.0 mm 0.00 in0.0 mm
11:15 AM 50.2°F10.1°C 46.8°F8.2°C 88% 9.5 mph E15.3 kmh E 16.8 mph27.0 kmh 30.41 in1029.8 mb 0.00 in0.0 mm 0.00 in0.0 mm 0.00 in0.0 mm
11:10 AM 50.0°F10.0°C 46.6°F8.1°C 88% 9.7 mph ENE15.6 kmh ENE 18.3 mph29.5 kmh 30.41 in1029.8 mb 0.00 in0.0 mm 0.00 in0.0 mm 0.00 in0.0 mm
11:05 AM 49.8°F9.9°C 46.7°F8.2°C 89% 11.3 mph ENE18.2 kmh ENE 19.7 mph31.7 kmh 30.41 in1029.8 mb 0.00 in0.0 mm 0.00 in0.0 mm 0.00 in0.0 mm
11:00 AM 49.6°F9.8°C 46.5°F8.1°C 89% 11.9 mph ENE19.2 kmh ENE 19.7 mph31.7 kmh 30.41 in1029.8 mb 0.00 in0.0 mm 0.00 in0.0 mm 0.00 in0.0 mm
10:55 AM 49.6°F9.8°C 46.8°F8.2°C 90% 11.2 mph E18.0 kmh E 16.8 mph27.0 kmh 30.41 in1029.8 mb 0.00 in0.0 mm 0.00 in0.0 mm 0.00 in0.0 mm
10:50 AM 49.6°F9.8°C 46.8°F8.2°C 90% 10.5 mph ENE16.9 kmh ENE 16.8 mph27.0 kmh 30.41 in1029.8 mb 0.00 in0.0 mm 0.00 in0.0 mm 0.00 in0.0 mm
10:45 AM 49.5°F9.7°C 46.6°F8.1°C 90% 10.2 mph ENE16.4 kmh ENE 16.8 mph27.0 kmh 30.42 in1030.1 mb 0.00 in0.0 mm 0.00 in0.0 mm 0.00 in0.0 mm
10:40 AM 49.3°F9.6°C 46.5°F8.1°C 90% 11.0 mph ENE17.7 kmh ENE 17.4 mph28.0 kmh 30.41 in1029.8 mb 0.00 in0.0 mm 0.00 in0.0 mm 0.00 in0.0 mm
10:35 AM 49.3°F9.6°C 46.8°F8.2°C 91% 10.9 mph ENE17.5 kmh ENE 17.4 mph28.0 kmh 30.42 in1030.1 mb 0.00 in0.0 mm 0.00 in0.0 mm 0.00 in0.0 mm
10:30 AM 49.1°F9.5°C 46.6°F8.1°C 91% 10.0 mph ENE16.1 kmh ENE 15.2 mph24.5 kmh 30.42 in1030.1 mb 0.00 in0.0 mm 0.00 in0.0 mm 0.00 in0.0 mm
10:25 AM 48.9°F9.4°C 46.4°F8.0°C 91% 9.7 mph NE15.6 kmh NE 18.3 mph29.5 kmh 30.41 in1029.8 mb 0.00 in0.0 mm 0.00 in0.0 mm 0.00 in0.0 mm
10:20 AM 48.9°F9.4°C 46.4°F8.0°C 91% 9.3 mph NE15.0 kmh NE 18.3 mph29.5 kmh 30.42 in1030.1 mb 0.00 in0.0 mm 0.00 in0.0 mm 0.00 in0.0 mm
10:15 AM 48.7°F9.3°C 46.2°F7.9°C 91% 10.1 mph NE16.3 kmh NE 16.8 mph27.0 kmh 30.42 in1030.1 mb 0.00 in0.0 mm 0.00 in0.0 mm 0.00 in0.0 mm
10:10 AM 48.6°F9.2°C 46.1°F7.8°C 91% 11.2 mph ENE18.0 kmh ENE 16.8 mph27.0 kmh 30.42 in1030.1 mb 0.00 in0.0 mm 0.00 in0.0 mm 0.00 in0.0 mm
10:05 AM 48.4°F9.1°C 45.9°F7.7°C 91% 11.3 mph E18.2 kmh E 15.9 mph25.6 kmh 30.42 in1030.1 mb 0.00 in0.0 mm 0.00 in0.0 mm 0.00 in0.0 mm
10:00 AM 48.4°F9.1°C 45.9°F7.7°C 91% 10.7 mph ENE17.2 kmh ENE 17.4 mph28.0 kmh 30.42 in1030.1 mb 0.00 in0.0 mm 0.00 in0.0 mm 0.00 in0.0 mm
09:55 AM 48.2°F9.0°C 45.7°F7.6°C 91% 10.5 mph NE16.9 kmh NE 17.4 mph28.0 kmh 30.42 in1030.1 mb 0.00 in0.0 mm 0.00 in0.0 mm 0.00 in0.0 mm
09:50 AM 48.0°F8.9°C 46.1°F7.8°C 93% 9.8 mph NE15.8 kmh NE 16.8 mph27.0 kmh 30.42 in1030.1 mb 0.00 in0.0 mm 0.00 in0.0 mm 0.00 in0.0 mm
09:45 AM 48.0°F8.9°C 46.1°F7.8°C 93% 8.6 mph NE13.8 kmh NE 14.5 mph23.3 kmh 30.42 in1030.1 mb 0.00 in0.0 mm 0.00 in0.0 mm 0.00 in0.0 mm
09:40 AM 47.7°F8.7°C 45.5°F7.5°C 92% 9.3 mph NE15.0 kmh NE 15.9 mph25.6 kmh 30.42 in1030.1 mb 0.00 in0.0 mm 0.00 in0.0 mm 0.00 in0.0 mm
09:35 AM 47.7°F8.7°C 45.5°F7.5°C 92% 9.7 mph ENE15.6 kmh ENE 15.9 mph25.6 kmh 30.41 in1029.8 mb 0.00 in0.0 mm 0.00 in0.0 mm 0.00 in0.0 mm
09:30 AM 47.5°F8.6°C 45.3°F7.4°C 92% 8.8 mph ENE14.2 kmh ENE 13.6 mph21.9 kmh 30.41 in1029.8 mb 0.00 in0.0 mm 0.00 in0.0 mm 0.00 in0.0 mm
09:25 AM 47.3°F8.5°C 45.1°F7.3°C 92% 8.5 mph ENE13.7 kmh ENE 13.6 mph21.9 kmh 30.41 in1029.8 mb 0.00 in0.0 mm 0.00 in0.0 mm 0.00 in0.0 mm
09:20 AM 47.1°F8.4°C 44.9°F7.2°C 92% 8.6 mph E13.8 kmh E 13.0 mph20.9 kmh 30.41 in1029.8 mb 0.00 in0.0 mm 0.00 in0.0 mm 0.00 in0.0 mm
09:15 AM 46.9°F8.3°C 44.7°F7.1°C 92% 8.5 mph E13.7 kmh E 13.0 mph20.9 kmh 30.41 in1029.8 mb 0.00 in0.0 mm 0.00 in0.0 mm 0.00 in0.0 mm
09:10 AM 46.6°F8.1°C 44.4°F6.9°C 92% 8.6 mph E13.8 kmh E 12.1 mph19.5 kmh 30.41 in1029.8 mb 0.00 in0.0 mm 0.00 in0.0 mm 0.00 in0.0 mm
09:05 AM 46.4°F8.0°C 44.2°F6.8°C 92% 8.8 mph E14.2 kmh E 12.1 mph19.5 kmh 30.41 in1029.8 mb 0.00 in0.0 mm 0.00 in0.0 mm 0.00 in0.0 mm
09:00 AM 46.2°F7.9°C 44.3°F6.8°C 93% 8.6 mph E13.8 kmh E 13.6 mph21.9 kmh 30.41 in1029.8 mb 0.00 in0.0 mm 0.00 in0.0 mm 0.00 in0.0 mm
08:55 AM 46.0°F7.8°C 44.1°F6.7°C 93% 9.1 mph E14.6 kmh E 13.6 mph21.9 kmh 30.41 in1029.8 mb 0.00 in0.0 mm 0.00 in0.0 mm 0.00 in0.0 mm
08:50 AM 45.9°F7.7°C 43.7°F6.5°C 92% 9.3 mph E15.0 kmh E 13.6 mph21.9 kmh 30.41 in1029.8 mb 0.00 in0.0 mm 0.00 in0.0 mm 0.00 in0.0 mm
08:45 AM 45.7°F7.6°C 43.5°F6.4°C 92% 8.6 mph E13.8 kmh E 12.1 mph19.5 kmh 30.41 in1029.8 mb 0.00 in0.0 mm 0.00 in0.0 mm 0.00 in0.0 mm
08:40 AM 45.5°F7.5°C 43.3°F6.3°C 92% 8.4 mph E13.5 kmh E 12.1 mph19.5 kmh 30.41 in1029.8 mb 0.00 in0.0 mm 0.00 in0.0 mm 0.00 in0.0 mm
08:35 AM 45.5°F7.5°C 43.3°F6.3°C 92% 8.5 mph E13.7 kmh E 12.1 mph19.5 kmh 30.42 in1030.1 mb 0.00 in0.0 mm 0.00 in0.0 mm 0.00 in0.0 mm
08:30 AM 45.3°F7.4°C 43.1°F6.2°C 92% 8.7 mph E14.0 kmh E 13.6 mph21.9 kmh 30.42 in1030.1 mb 0.00 in0.0 mm 0.00 in0.0 mm 0.00 in0.0 mm
08:25 AM 45.1°F7.3°C 43.0°F6.1°C 92% 8.9 mph E14.3 kmh E 13.6 mph21.9 kmh 30.41 in1029.8 mb 0.00 in0.0 mm 0.00 in0.0 mm 0.00 in0.0 mm
08:20 AM 45.0°F7.2°C 42.8°F6.0°C 92% 8.8 mph E14.2 kmh E 12.1 mph19.5 kmh 30.42 in1030.1 mb 0.00 in0.0 mm 0.00 in0.0 mm 0.00 in0.0 mm
08:15 AM 44.8°F7.1°C 42.6°F5.9°C 92% 8.5 mph ENE13.7 kmh ENE 12.1 mph19.5 kmh 30.41 in1029.8 mb 0.00 in0.0 mm 0.00 in0.0 mm 0.00 in0.0 mm
08:10 AM 44.6°F7.0°C 42.4°F5.8°C 92% 8.2 mph NE13.2 kmh NE 12.1 mph19.5 kmh 30.41 in1029.8 mb 0.00 in0.0 mm 0.00 in0.0 mm 0.00 in0.0 mm
08:05 AM 44.4°F6.9°C 42.5°F5.8°C 93% 8.2 mph ENE13.2 kmh ENE 12.1 mph19.5 kmh 30.41 in1029.8 mb 0.00 in0.0 mm 0.00 in0.0 mm 0.00 in0.0 mm
08:00 AM 44.4°F6.9°C 42.5°F5.8°C 93% 8.8 mph ENE14.2 kmh ENE 13.6 mph21.9 kmh 30.41 in1029.8 mb 0.00 in0.0 mm 0.00 in0.0 mm 0.00 in0.0 mm
07:55 AM 44.4°F6.9°C 42.5°F5.8°C 93% 9.4 mph ENE15.1 kmh ENE 15.9 mph25.6 kmh 30.41 in1029.8 mb 0.00 in0.0 mm 0.00 in0.0 mm 0.00 in0.0 mm
07:50 AM 44.2°F6.8°C 42.3°F5.7°C 93% 9.2 mph ENE14.8 kmh ENE 15.9 mph25.6 kmh 30.41 in1029.8 mb 0.00 in0.0 mm 0.00 in0.0 mm 0.00 in0.0 mm
07:45 AM 44.2°F6.8°C 42.3°F5.7°C 93% 8.7 mph ENE14.0 kmh ENE 13.0 mph20.9 kmh 30.41 in1029.8 mb 0.00 in0.0 mm 0.00 in0.0 mm 0.00 in0.0 mm
07:40 AM 44.1°F6.7°C 42.2°F5.7°C 93% 8.1 mph E13.0 kmh E 13.0 mph20.9 kmh 30.41 in1029.8 mb 0.00 in0.0 mm 0.00 in0.0 mm 0.00 in0.0 mm
07:35 AM 44.1°F6.7°C 42.2°F5.7°C 93% 7.6 mph E12.2 kmh E 11.4 mph18.3 kmh 30.41 in1029.8 mb 0.00 in0.0 mm 0.00 in0.0 mm 0.00 in0.0 mm
07:30 AM 44.1°F6.7°C 42.2°F5.7°C 93% 8.6 mph E13.8 kmh E 13.0 mph20.9 kmh 30.41 in1029.8 mb 0.00 in0.0 mm 0.00 in0.0 mm 0.00 in0.0 mm
07:25 AM 44.1°F6.7°C 42.2°F5.7°C 93% 9.0 mph E14.5 kmh E 13.0 mph20.9 kmh 30.41 in1029.8 mb 0.00 in0.0 mm 0.00 in0.0 mm 0.00 in0.0 mm
07:20 AM 44.1°F6.7°C 42.2°F5.7°C 93% 8.3 mph ENE13.4 kmh ENE 13.0 mph20.9 kmh 30.41 in1029.8 mb 0.00 in0.0 mm 0.00 in0.0 mm 0.00 in0.0 mm
07:15 AM 44.2°F6.8°C 42.3°F5.7°C 93% 8.7 mph E14.0 kmh E 12.1 mph19.5 kmh 30.41 in1029.8 mb 0.00 in0.0 mm 0.00 in0.0 mm 0.00 in0.0 mm
07:10 AM 44.2°F6.8°C 42.3°F5.7°C 93% 8.6 mph E13.8 kmh E 13.6 mph21.9 kmh 30.40 in1029.5 mb 0.00 in0.0 mm 0.00 in0.0 mm 0.00 in0.0 mm
07:05 AM 44.4°F6.9°C 42.5°F5.8°C 93% 8.5 mph E13.7 kmh E 13.6 mph21.9 kmh 30.40 in1029.5 mb 0.00 in0.0 mm 0.00 in0.0 mm 0.00 in0.0 mm
07:00 AM 44.4°F6.9°C 42.5°F5.8°C 93% 9.2 mph E14.8 kmh E 13.0 mph20.9 kmh 30.41 in1029.8 mb 0.00 in0.0 mm 0.00 in0.0 mm 0.00 in0.0 mm
06:55 AM 44.4°F6.9°C 42.5°F5.8°C 93% 8.9 mph E14.3 kmh E 13.0 mph20.9 kmh 30.41 in1029.8 mb 0.00 in0.0 mm 0.00 in0.0 mm 0.00 in0.0 mm
06:50 AM 44.4°F6.9°C 42.5°F5.8°C 93% 8.1 mph E13.0 kmh E 13.0 mph20.9 kmh 30.40 in1029.5 mb 0.00 in0.0 mm 0.00 in0.0 mm 0.00 in0.0 mm
06:45 AM 44.4°F6.9°C 42.5°F5.8°C 93% 8.3 mph E13.4 kmh E 12.1 mph19.5 kmh 30.40 in1029.5 mb 0.00 in0.0 mm 0.00 in0.0 mm 0.00 in0.0 mm
06:40 AM 44.4°F6.9°C 42.5°F5.8°C 93% 9.0 mph E14.5 kmh E 13.0 mph20.9 kmh 30.41 in1029.8 mb 0.00 in0.0 mm 0.00 in0.0 mm 0.00 in0.0 mm
06:35 AM 44.4°F6.9°C 42.5°F5.8°C 93% 9.1 mph E14.6 kmh E 13.6 mph21.9 kmh 30.41 in1029.8 mb 0.00 in0.0 mm 0.00 in0.0 mm 0.00 in0.0 mm
06:30 AM 44.4°F6.9°C 42.5°F5.8°C 93% 9.0 mph E14.5 kmh E 13.6 mph21.9 kmh 30.41 in1029.8 mb 0.00 in0.0 mm 0.00 in0.0 mm 0.00 in0.0 mm
06:25 AM 44.2°F6.8°C 42.3°F5.7°C 93% 9.3 mph E15.0 kmh E 14.5 mph23.3 kmh 30.41 in1029.8 mb 0.00 in0.0 mm 0.00 in0.0 mm 0.00 in0.0 mm
06:20 AM 44.2°F6.8°C 42.3°F5.7°C 93% 9.4 mph E15.1 kmh E 14.5 mph23.3 kmh 30.41 in1029.8 mb 0.00 in0.0 mm 0.00 in0.0 mm 0.00 in0.0 mm
06:15 AM 44.2°F6.8°C 42.3°F5.7°C 93% 9.4 mph E15.1 kmh E 13.6 mph21.9 kmh 30.40 in1029.5 mb 0.00 in0.0 mm 0.00 in0.0 mm 0.00 in0.0 mm
06:10 AM 44.1°F6.7°C 42.2°F5.7°C 93% 8.9 mph E14.3 kmh E 13.0 mph20.9 kmh 30.40 in1029.5 mb 0.00 in0.0 mm 0.00 in0.0 mm 0.00 in0.0 mm
06:05 AM 44.1°F6.7°C 42.2°F5.7°C 93% 8.3 mph E13.4 kmh E 13.0 mph20.9 kmh 30.40 in1029.5 mb 0.00 in0.0 mm 0.00 in0.0 mm 0.00 in0.0 mm
06:00 AM 44.1°F6.7°C 42.2°F5.7°C 93% 8.0 mph E12.9 kmh E 13.0 mph20.9 kmh 30.40 in1029.5 mb 0.00 in0.0 mm 0.00 in0.0 mm 0.00 in0.0 mm
05:55 AM 44.1°F6.7°C 42.2°F5.7°C 93% 7.7 mph ENE12.4 kmh ENE 11.4 mph18.3 kmh 30.40 in1029.5 mb 0.00 in0.0 mm 0.00 in0.0 mm 0.00 in0.0 mm
05:50 AM 44.1°F6.7°C 42.2°F5.7°C 93% 7.7 mph ENE12.4 kmh ENE 11.4 mph18.3 kmh 30.40 in1029.5 mb 0.00 in0.0 mm 0.00 in0.0 mm 0.00 in0.0 mm
05:45 AM 44.1°F6.7°C 41.9°F5.5°C 92% 7.7 mph ENE12.4 kmh ENE 11.4 mph18.3 kmh 30.40 in1029.5 mb 0.00 in0.0 mm 0.00 in0.0 mm 0.00 in0.0 mm
05:40 AM 44.2°F6.8°C 42.1°F5.6°C 92% 8.0 mph E12.9 kmh E 13.0 mph20.9 kmh 30.40 in1029.5 mb 0.00 in0.0 mm 0.00 in0.0 mm 0.00 in0.0 mm
05:35 AM 44.2°F6.8°C 42.1°F5.6°C 92% 7.9 mph E12.7 kmh E 13.0 mph20.9 kmh 30.40 in1029.5 mb 0.00 in0.0 mm 0.00 in0.0 mm 0.00 in0.0 mm
05:30 AM 44.2°F6.8°C 42.1°F5.6°C 92% 7.3 mph ENE11.7 kmh ENE 11.4 mph18.3 kmh 30.40 in1029.5 mb 0.00 in0.0 mm 0.00 in0.0 mm 0.00 in0.0 mm
05:25 AM 44.2°F6.8°C 42.1°F5.6°C 92% 7.3 mph ENE11.7 kmh ENE 10.7 mph17.2 kmh 30.40 in1029.5 mb 0.00 in0.0 mm 0.00 in0.0 mm 0.00 in0.0 mm
05:20 AM 44.2°F6.8°C 42.1°F5.6°C 92% 8.2 mph ENE13.2 kmh ENE 13.0 mph20.9 kmh 30.40 in1029.5 mb 0.00 in0.0 mm 0.00 in0.0 mm 0.00 in0.0 mm
05:15 AM 44.4°F6.9°C 42.2°F5.7°C 92% 8.3 mph E13.4 kmh E 13.0 mph20.9 kmh 30.39 in1029.1 mb 0.00 in0.0 mm 0.00 in0.0 mm 0.00 in0.0 mm
05:10 AM 44.4°F6.9°C 42.2°F5.7°C 92% 7.9 mph E12.7 kmh E 12.1 mph19.5 kmh 30.40 in1029.5 mb 0.00 in0.0 mm 0.00 in0.0 mm 0.00 in0.0 mm
05:05 AM 44.4°F6.9°C 42.2°F5.7°C 92% 7.9 mph E12.7 kmh E 12.1 mph19.5 kmh 30.40 in1029.5 mb 0.00 in0.0 mm 0.00 in0.0 mm 0.00 in0.0 mm
05:00 AM 44.4°F6.9°C 42.2°F5.7°C 92% 8.0 mph E12.9 kmh E 12.1 mph19.5 kmh 30.40 in1029.5 mb 0.00 in0.0 mm 0.00 in0.0 mm 0.00 in0.0 mm
04:55 AM 44.4°F6.9°C 42.2°F5.7°C 92% 7.8 mph E12.6 kmh E 12.1 mph19.5 kmh 30.40 in1029.5 mb 0.00 in0.0 mm 0.00 in0.0 mm 0.00 in0.0 mm
04:50 AM 44.4°F6.9°C 42.2°F5.7°C 92% 7.2 mph E11.6 kmh E 10.7 mph17.2 kmh 30.40 in1029.5 mb 0.00 in0.0 mm 0.00 in0.0 mm 0.00 in0.0 mm
04:45 AM 44.4°F6.9°C 42.2°F5.7°C 92% 6.9 mph E11.1 kmh E 10.7 mph17.2 kmh 30.39 in1029.1 mb 0.00 in0.0 mm 0.00 in0.0 mm 0.00 in0.0 mm
04:40 AM 44.6°F7.0°C 42.1°F5.6°C 91% 7.1 mph E11.4 kmh E 10.7 mph17.2 kmh 30.39 in1029.1 mb 0.00 in0.0 mm 0.00 in0.0 mm 0.00 in0.0 mm
04:35 AM 44.8°F7.1°C 42.3°F5.7°C 91% 7.3 mph E11.7 kmh E 10.7 mph17.2 kmh 30.39 in1029.1 mb 0.00 in0.0 mm 0.00 in0.0 mm 0.00 in0.0 mm
04:30 AM 44.8°F7.1°C 42.3°F5.7°C 91% 7.4 mph E11.9 kmh E 10.7 mph17.2 kmh 30.39 in1029.1 mb 0.00 in0.0 mm 0.00 in0.0 mm 0.00 in0.0 mm
04:25 AM 45.0°F7.2°C 42.5°F5.8°C 91% 7.8 mph E12.6 kmh E 11.4 mph18.3 kmh 30.39 in1029.1 mb 0.00 in0.0 mm 0.00 in0.0 mm 0.00 in0.0 mm
04:20 AM 45.0°F7.2°C 42.5°F5.8°C 91% 8.5 mph E13.7 kmh E 12.1 mph19.5 kmh 30.39 in1029.1 mb 0.00 in0.0 mm 0.00 in0.0 mm 0.00 in0.0 mm
04:15 AM 45.1°F7.3°C 42.7°F5.9°C 91% 8.7 mph E14.0 kmh E 12.1 mph19.5 kmh 30.39 in1029.1 mb 0.00 in0.0 mm 0.00 in0.0 mm 0.00 in0.0 mm
04:10 AM 45.1°F7.3°C 42.7°F5.9°C 91% 9.3 mph E15.0 kmh E 14.5 mph23.3 kmh 30.39 in1029.1 mb 0.00 in0.0 mm 0.00 in0.0 mm 0.00 in0.0 mm
04:05 AM 45.1°F7.3°C 42.7°F5.9°C 91% 10.0 mph E16.1 kmh E 14.5 mph23.3 kmh 30.39 in1029.1 mb 0.00 in0.0 mm 0.00 in0.0 mm 0.00 in0.0 mm
04:00 AM 45.1°F7.3°C 42.7°F5.9°C 91% 10.0 mph ENE16.1 kmh ENE 14.5 mph23.3 kmh 30.39 in1029.1 mb 0.00 in0.0 mm 0.00 in0.0 mm 0.00 in0.0 mm
03:55 AM 45.0°F7.2°C 42.5°F5.8°C 91% 9.1 mph E14.6 kmh E 13.0 mph20.9 kmh 30.39 in1029.1 mb 0.00 in0.0 mm 0.00 in0.0 mm 0.00 in0.0 mm
03:50 AM 45.0°F7.2°C 42.5°F5.8°C 91% 8.5 mph E13.7 kmh E 12.1 mph19.5 kmh 30.39 in1029.1 mb 0.00 in0.0 mm 0.00 in0.0 mm 0.00 in0.0 mm
03:45 AM 45.0°F7.2°C 42.5°F5.8°C 91% 8.6 mph ENE13.8 kmh ENE 13.6 mph21.9 kmh 30.39 in1029.1 mb 0.00 in0.0 mm 0.00 in0.0 mm 0.00 in0.0 mm
03:40 AM 45.0°F7.2°C 42.5°F5.8°C 91% 8.1 mph E13.0 kmh E 13.6 mph21.9 kmh 30.39 in1029.1 mb 0.00 in0.0 mm 0.00 in0.0 mm 0.00 in0.0 mm
03:35 AM 45.0°F7.2°C 42.5°F5.8°C 91% 8.2 mph E13.2 kmh E 13.0 mph20.9 kmh 30.39 in1029.1 mb 0.00 in0.0 mm 0.00 in0.0 mm 0.00 in0.0 mm
03:30 AM 45.0°F7.2°C 42.5°F5.8°C 91% 8.9 mph E14.3 kmh E 13.0 mph20.9 kmh 30.39 in1029.1 mb 0.00 in0.0 mm 0.00 in0.0 mm 0.00 in0.0 mm
03:25 AM 45.0°F7.2°C 42.5°F5.8°C 91% 8.7 mph E14.0 kmh E 12.1 mph19.5 kmh 30.39 in1029.1 mb 0.00 in0.0 mm 0.00 in0.0 mm 0.00 in0.0 mm
03:20 AM 45.0°F7.2°C 42.5°F5.8°C 91% 9.0 mph E14.5 kmh E 13.6 mph21.9 kmh 30.39 in1029.1 mb 0.00 in0.0 mm 0.00 in0.0 mm 0.00 in0.0 mm
03:15 AM 45.1°F7.3°C 42.7°F5.9°C 91% 9.9 mph E15.9 kmh E 15.2 mph24.5 kmh 30.39 in1029.1 mb 0.00 in0.0 mm 0.00 in0.0 mm 0.00 in0.0 mm
03:10 AM 45.1°F7.3°C 42.7°F5.9°C 91% 10.3 mph E16.6 kmh E 15.9 mph25.6 kmh 30.39 in1029.1 mb 0.00 in0.0 mm 0.00 in0.0 mm 0.00 in0.0 mm
03:05 AM 45.0°F7.2°C 42.5°F5.8°C 91% 9.1 mph E14.6 kmh E 15.9 mph25.6 kmh 30.39 in1029.1 mb 0.00 in0.0 mm 0.00 in0.0 mm 0.00 in0.0 mm
03:00 AM 45.0°F7.2°C 42.2°F5.7°C 90% 9.2 mph E14.8 kmh E 14.5 mph23.3 kmh 30.39 in1029.1 mb 0.00 in0.0 mm 0.00 in0.0 mm 0.00 in0.0 mm
02:55 AM 45.0°F7.2°C 42.2°F5.7°C 90% 10.4 mph ENE16.7 kmh ENE 14.5 mph23.3 kmh 30.39 in1029.1 mb 0.00 in0.0 mm 0.00 in0.0 mm 0.00 in0.0 mm
02:50 AM 45.0°F7.2°C 42.2°F5.7°C 90% 10.2 mph ENE16.4 kmh ENE 14.5 mph23.3 kmh 30.39 in1029.1 mb 0.00 in0.0 mm 0.00 in0.0 mm 0.00 in0.0 mm
02:45 AM 45.1°F7.3°C 42.4°F5.8°C 90% 10.3 mph E16.6 kmh E 15.9 mph25.6 kmh 30.39 in1029.1 mb 0.00 in0.0 mm 0.00 in0.0 mm 0.00 in0.0 mm
02:40 AM 45.1°F7.3°C 42.4°F5.8°C 90% 10.2 mph E16.4 kmh E 15.9 mph25.6 kmh 30.39 in1029.1 mb 0.00 in0.0 mm 0.00 in0.0 mm 0.00 in0.0 mm
02:35 AM 45.1°F7.3°C 42.4°F5.8°C 90% 10.5 mph E16.9 kmh E 15.9 mph25.6 kmh 30.39 in1029.1 mb 0.00 in0.0 mm 0.00 in0.0 mm 0.00 in0.0 mm
02:30 AM 45.1°F7.3°C 42.4°F5.8°C 90% 11.0 mph E17.7 kmh E 15.9 mph25.6 kmh 30.39 in1029.1 mb 0.00 in0.0 mm 0.00 in0.0 mm 0.00 in0.0 mm
02:25 AM 45.1°F7.3°C 42.4°F5.8°C 90% 10.5 mph E16.9 kmh E 15.9 mph25.6 kmh 30.39 in1029.1 mb 0.00 in0.0 mm 0.00 in0.0 mm 0.00 in0.0 mm
02:20 AM 45.1°F7.3°C 42.4°F5.8°C 90% 10.9 mph ENE17.5 kmh ENE 17.4 mph28.0 kmh 30.39 in1029.1 mb 0.00 in0.0 mm 0.00 in0.0 mm 0.00 in0.0 mm
02:15 AM 45.1°F7.3°C 42.4°F5.8°C 90% 11.9 mph E19.2 kmh E 17.4 mph28.0 kmh 30.39 in1029.1 mb 0.00 in0.0 mm 0.00 in0.0 mm 0.00 in0.0 mm
02:10 AM 45.0°F7.2°C 42.2°F5.7°C 90% 11.4 mph E18.3 kmh E 17.4 mph28.0 kmh 30.39 in1029.1 mb 0.00 in0.0 mm 0.00 in0.0 mm 0.00 in0.0 mm
02:05 AM 45.0°F7.2°C 42.2°F5.7°C 90% 10.6 mph ENE17.1 kmh ENE 15.9 mph25.6 kmh 30.39 in1029.1 mb 0.00 in0.0 mm 0.00 in0.0 mm 0.00 in0.0 mm
02:00 AM 45.0°F7.2°C 42.2°F5.7°C 90% 10.5 mph ENE16.9 kmh ENE 15.9 mph25.6 kmh 30.39 in1029.1 mb 0.00 in0.0 mm 0.00 in0.0 mm 0.00 in0.0 mm
01:55 AM 44.8°F7.1°C 42.0°F5.6°C 90% 10.3 mph E16.6 kmh E 14.5 mph23.3 kmh 30.39 in1029.1 mb 0.00 in0.0 mm 0.00 in0.0 mm 0.00 in0.0 mm
01:50 AM 44.8°F7.1°C 42.0°F5.6°C 90% 9.6 mph E15.4 kmh E 13.6 mph21.9 kmh 30.39 in1029.1 mb 0.00 in0.0 mm 0.00 in0.0 mm 0.00 in0.0 mm
01:45 AM 44.8°F7.1°C 42.0°F5.6°C 90% 9.1 mph E14.6 kmh E 13.0 mph20.9 kmh 30.39 in1029.1 mb 0.00 in0.0 mm 0.00 in0.0 mm 0.00 in0.0 mm
01:40 AM 44.8°F7.1°C 41.7°F5.4°C 89% 9.2 mph E14.8 kmh E 13.6 mph21.9 kmh 30.39 in1029.1 mb 0.00 in0.0 mm 0.00 in0.0 mm 0.00 in0.0 mm
01:35 AM 44.8°F7.1°C 41.7°F5.4°C 89% 9.5 mph E15.3 kmh E 13.6 mph21.9 kmh 30.39 in1029.1 mb 0.00 in0.0 mm 0.00 in0.0 mm 0.00 in0.0 mm
01:30 AM 44.8°F7.1°C 41.7°F5.4°C 89% 9.0 mph E14.5 kmh E 13.6 mph21.9 kmh 30.39 in1029.1 mb 0.00 in0.0 mm 0.00 in0.0 mm 0.00 in0.0 mm
01:25 AM 44.8°F7.1°C 41.7°F5.4°C 89% 9.2 mph E14.8 kmh E 14.5 mph23.3 kmh 30.39 in1029.1 mb 0.00 in0.0 mm 0.00 in0.0 mm 0.00 in0.0 mm
01:20 AM 44.8°F7.1°C 41.7°F5.4°C 89% 9.5 mph E15.3 kmh E 14.5 mph23.3 kmh 30.38 in1028.8 mb 0.00 in0.0 mm 0.00 in0.0 mm 0.00 in0.0 mm
01:15 AM 44.8°F7.1°C 41.7°F5.4°C 89% 9.1 mph ENE14.6 kmh ENE 13.0 mph20.9 kmh 30.39 in1029.1 mb 0.00 in0.0 mm 0.00 in0.0 mm 0.00 in0.0 mm
01:10 AM 44.8°F7.1°C 41.7°F5.4°C 89% 8.9 mph ENE14.3 kmh ENE 13.0 mph20.9 kmh 30.38 in1028.8 mb 0.00 in0.0 mm 0.00 in0.0 mm 0.00 in0.0 mm
01:05 AM 44.8°F7.1°C 41.7°F5.4°C 89% 9.0 mph E14.5 kmh E 13.6 mph21.9 kmh 30.39 in1029.1 mb 0.00 in0.0 mm 0.00 in0.0 mm 0.00 in0.0 mm
01:00 AM 44.8°F7.1°C 41.7°F5.4°C 89% 9.0 mph E14.5 kmh E 13.6 mph21.9 kmh 30.39 in1029.1 mb 0.00 in0.0 mm 0.00 in0.0 mm 0.00 in0.0 mm
12:55 AM 44.8°F7.1°C 41.7°F5.4°C 89% 8.9 mph E14.3 kmh E 13.6 mph21.9 kmh 30.39 in1029.1 mb 0.00 in0.0 mm 0.00 in0.0 mm 0.00 in0.0 mm
12:50 AM 44.8°F7.1°C 41.7°F5.4°C 89% 9.6 mph E15.4 kmh E 15.9 mph25.6 kmh 30.39 in1029.1 mb 0.00 in0.0 mm 0.00 in0.0 mm 0.00 in0.0 mm
12:45 AM 45.0°F7.2°C 41.9°F5.5°C 89% 10.3 mph E16.6 kmh E 15.9 mph25.6 kmh 30.39 in1029.1 mb 0.00 in0.0 mm 0.00 in0.0 mm 0.00 in0.0 mm
12:40 AM 45.0°F7.2°C 41.9°F5.5°C 89% 10.6 mph ENE17.1 kmh ENE 15.9 mph25.6 kmh 30.39 in1029.1 mb 0.00 in0.0 mm 0.00 in0.0 mm 0.00 in0.0 mm
12:35 AM 45.0°F7.2°C 41.9°F5.5°C 89% 10.9 mph ENE17.5 kmh ENE 16.8 mph27.0 kmh 30.40 in1029.5 mb 0.00 in0.0 mm 0.00 in0.0 mm 0.00 in0.0 mm
12:30 AM 45.0°F7.2°C 41.9°F5.5°C 89% 10.8 mph ENE17.4 kmh ENE 17.4 mph28.0 kmh 30.39 in1029.1 mb 0.00 in0.0 mm 0.00 in0.0 mm 0.00 in0.0 mm
12:25 AM 45.0°F7.2°C 41.6°F5.3°C 88% 9.9 mph ENE15.9 kmh ENE 17.4 mph28.0 kmh 30.39 in1029.1 mb 0.00 in0.0 mm 0.00 in0.0 mm 0.00 in0.0 mm
12:20 AM 45.0°F7.2°C 41.6°F5.3°C 88% 8.8 mph E14.2 kmh E 13.0 mph20.9 kmh 30.39 in1029.1 mb 0.00 in0.0 mm 0.00 in0.0 mm 0.00 in0.0 mm
12:15 AM 45.0°F7.2°C 41.6°F5.3°C 88% 9.3 mph E15.0 kmh E 13.6 mph21.9 kmh 30.39 in1029.1 mb 0.00 in0.0 mm 0.00 in0.0 mm 0.00 in0.0 mm
12:10 AM 45.0°F7.2°C 41.6°F5.3°C 88% 9.9 mph E15.9 kmh E 13.6 mph21.9 kmh 30.40 in1029.5 mb 0.00 in0.0 mm 0.00 in0.0 mm 0.00 in0.0 mm
12:05 AM 45.1°F7.3°C 41.8°F5.4°C 88% 9.8 mph E15.8 kmh E 14.5 mph23.3 kmh 30.40 in1029.5 mb 0.00 in0.0 mm 0.00 in0.0 mm 0.00 in0.0 mm
12:00 AM 45.1°F7.3°C 41.8°F5.4°C 88% 10.1 mph E16.3 kmh E 15.2 mph24.5 kmh 30.40 in1029.5 mb 0.00 in0.0 mm 0.00 in0.0 mm 0.00 in0.0 mm